Honeywell Corners, New York
Current Conditions -  °F | °C
As of 5:35 PM on Tuesday 21 Oct 2014 (Local Time) from KNY0 Reporting Station
Overcast Overcast  
Wind Chill:   Ceiling: 1400
Heat Index: 10°   Visibility: 10mi
Dew Point:   Wind: 6mph
Humidity: 91%   Direction: 40°NE
Pressure: 29.93"   Gusts: NA
Location:  43.0744°N, 74.1473°W
Report Text: KNY0 212135Z AUTO 04005KT 10SM OVC014 10/08 A2993 RMK AO2 T00970083
Loading
Personal Weather Stations






























Interactive Weather Map
Tropical Storm Tracking
New forecast layout! Learn more

10-Day Weather Forecast

Advertisements
Track Severe Weather on mobile